sensor_id;sensor_type;location;lat;lon;timestamp;P1;durP1;ratioP1;P2;durP2;ratioP2
20511;SDS011;10414;52.074;5.126;2023-05-07T00:00:23;33.67;;;21.30;;
20511;SDS011;10414;52.074;5.126;2023-05-07T00:02:51;33.83;;;21.77;;
20511;SDS011;10414;52.074;5.126;2023-05-07T00:05:18;33.90;;;20.75;;
20511;SDS011;10414;52.074;5.126;2023-05-07T00:07:45;34.85;;;22.10;;
20511;SDS011;10414;52.074;5.126;2023-05-07T00:10:12;29.67;;;20.40;;
20511;SDS011;10414;52.074;5.126;2023-05-07T00:12:39;29.52;;;19.45;;
20511;SDS011;10414;52.074;5.126;2023-05-07T00:15:07;30.92;;;19.65;;
20511;SDS011;10414;52.074;5.126;2023-05-07T00:17:34;31.23;;;18.38;;
20511;SDS011;10414;52.074;5.126;2023-05-07T00:20:03;27.40;;;17.65;;
20511;SDS011;10414;52.074;5.126;2023-05-07T00:22:31;26.10;;;17.20;;
20511;SDS011;10414;52.074;5.126;2023-05-07T00:24:58;24.52;;;15.40;;
20511;SDS011;10414;52.074;5.126;2023-05-07T00:27:25;22.92;;;15.07;;
20511;SDS011;10414;52.074;5.126;2023-05-07T00:29:52;24.45;;;15.25;;
20511;SDS011;10414;52.074;5.126;2023-05-07T00:32:19;20.98;;;14.48;;
20511;SDS011;10414;52.074;5.126;2023-05-07T00:34:45;22.00;;;14.82;;
20511;SDS011;10414;52.074;5.126;2023-05-07T00:37:13;21.33;;;14.27;;
20511;SDS011;10414;52.074;5.126;2023-05-07T00:39:40;23.13;;;15.13;;
20511;SDS011;10414;52.074;5.126;2023-05-07T00:42:07;23.02;;;15.40;;
20511;SDS011;10414;52.074;5.126;2023-05-07T00:44:34;21.40;;;13.77;;
20511;SDS011;10414;52.074;5.126;2023-05-07T00:47:01;19.17;;;13.85;;
20511;SDS011;10414;52.074;5.126;2023-05-07T00:49:32;21.33;;;13.95;;
20511;SDS011;10414;52.074;5.126;2023-05-07T00:52:04;20.67;;;14.45;;
20511;SDS011;10414;52.074;5.126;2023-05-07T00:54:33;19.05;;;14.13;;
20511;SDS011;10414;52.074;5.126;2023-05-07T00:57:01;19.85;;;13.85;;
20511;SDS011;10414;52.074;5.126;2023-05-07T00:59:29;21.67;;;14.13;;
20511;SDS011;10414;52.074;5.126;2023-05-07T01:01:57;25.45;;;14.60;;
20511;SDS011;10414;52.074;5.126;2023-05-07T01:04:24;20.98;;;14.77;;
20511;SDS011;10414;52.074;5.126;2023-05-07T01:06:52;22.88;;;14.60;;
20511;SDS011;10414;52.074;5.126;2023-05-07T01:09:20;22.55;;;14.05;;
20511;SDS011;10414;52.074;5.126;2023-05-07T01:11:49;20.08;;;14.30;;
20511;SDS011;10414;52.074;5.126;2023-05-07T01:14:17;19.35;;;13.93;;
20511;SDS011;10414;52.074;5.126;2023-05-07T01:16:45;21.83;;;14.88;;
20511;SDS011;10414;52.074;5.126;2023-05-07T01:19:12;20.13;;;14.57;;
20511;SDS011;10414;52.074;5.126;2023-05-07T01:21:41;22.48;;;14.52;;
20511;SDS011;10414;52.074;5.126;2023-05-07T01:24:13;23.55;;;16.30;;
20511;SDS011;10414;52.074;5.126;2023-05-07T01:26:41;21.75;;;14.93;;
20511;SDS011;10414;52.074;5.126;2023-05-07T01:29:09;25.25;;;15.50;;
20511;SDS011;10414;52.074;5.126;2023-05-07T01:31:36;24.20;;;15.30;;
20511;SDS011;10414;52.074;5.126;2023-05-07T01:34:04;21.85;;;14.80;;
20511;SDS011;10414;52.074;5.126;2023-05-07T01:36:33;22.10;;;14.85;;
20511;SDS011;10414;52.074;5.126;2023-05-07T01:39:02;25.77;;;15.75;;
20511;SDS011;10414;52.074;5.126;2023-05-07T01:41:30;23.00;;;16.58;;
20511;SDS011;10414;52.074;5.126;2023-05-07T01:43:57;25.63;;;17.55;;
20511;SDS011;10414;52.074;5.126;2023-05-07T01:46:25;26.20;;;17.83;;
20511;SDS011;10414;52.074;5.126;2023-05-07T01:48:52;25.83;;;17.80;;
20511;SDS011;10414;52.074;5.126;2023-05-07T01:51:19;25.98;;;16.30;;
20511;SDS011;10414;52.074;5.126;2023-05-07T01:53:47;23.17;;;16.08;;
20511;SDS011;10414;52.074;5.126;2023-05-07T01:56:16;23.60;;;14.75;;
20511;SDS011;10414;52.074;5.126;2023-05-07T01:58:45;28.15;;;16.92;;
20511;SDS011;10414;52.074;5.126;2023-05-07T02:01:12;25.48;;;17.20;;
20511;SDS011;10414;52.074;5.126;2023-05-07T02:03:40;25.02;;;15.32;;
20511;SDS011;10414;52.074;5.126;2023-05-07T02:06:06;21.38;;;15.02;;
20511;SDS011;10414;52.074;5.126;2023-05-07T02:08:33;22.42;;;14.68;;
20511;SDS011;10414;52.074;5.126;2023-05-07T02:11:00;21.45;;;14.68;;
20511;SDS011;10414;52.074;5.126;2023-05-07T02:13:28;21.40;;;12.98;;
20511;SDS011;10414;52.074;5.126;2023-05-07T02:15:57;20.05;;;12.90;;
20511;SDS011;10414;52.074;5.126;2023-05-07T02:18:24;20.63;;;14.68;;
20511;SDS011;10414;52.074;5.126;2023-05-07T02:20:51;19.83;;;13.90;;
20511;SDS011;10414;52.074;5.126;2023-05-07T02:23:18;18.50;;;12.73;;
20511;SDS011;10414;52.074;5.126;2023-05-07T02:25:45;16.42;;;12.45;;
20511;SDS011;10414;52.074;5.126;2023-05-07T02:28:12;17.52;;;12.13;;
20511;SDS011;10414;52.074;5.126;2023-05-07T02:30:39;21.60;;;14.05;;
20511;SDS011;10414;52.074;5.126;2023-05-07T02:33:07;18.70;;;12.48;;
20511;SDS011;10414;52.074;5.126;2023-05-07T02:35:34;19.35;;;13.27;;
20511;SDS011;10414;52.074;5.126;2023-05-07T02:38:01;17.98;;;12.65;;
20511;SDS011;10414;52.074;5.126;2023-05-07T02:40:28;19.67;;;13.40;;
20511;SDS011;10414;52.074;5.126;2023-05-07T02:42:55;19.58;;;12.85;;
20511;SDS011;10414;52.074;5.126;2023-05-07T02:45:21;16.00;;;11.88;;
20511;SDS011;10414;52.074;5.126;2023-05-07T02:47:48;18.10;;;13.20;;
20511;SDS011;10414;52.074;5.126;2023-05-07T02:50:16;19.38;;;13.38;;
20511;SDS011;10414;52.074;5.126;2023-05-07T02:52:43;21.10;;;14.38;;
20511;SDS011;10414;52.074;5.126;2023-05-07T02:55:10;21.65;;;14.48;;
20511;SDS011;10414;52.074;5.126;2023-05-07T02:57:37;27.50;;;15.05;;
20511;SDS011;10414;52.074;5.126;2023-05-07T03:00:11;21.17;;;15.32;;
20511;SDS011;10414;52.074;5.126;2023-05-07T03:02:38;21.75;;;14.35;;
20511;SDS011;10414;52.074;5.126;2023-05-07T03:05:06;20.83;;;15.25;;
20511;SDS011;10414;52.074;5.126;2023-05-07T03:07:34;22.27;;;14.90;;
20511;SDS011;10414;52.074;5.126;2023-05-07T03:10:01;22.80;;;15.23;;
20511;SDS011;10414;52.074;5.126;2023-05-07T03:12:28;22.35;;;14.80;;
20511;SDS011;10414;52.074;5.126;2023-05-07T03:14:55;21.42;;;14.98;;
20511;SDS011;10414;52.074;5.126;2023-05-07T03:17:21;22.50;;;14.73;;
20511;SDS011;10414;52.074;5.126;2023-05-07T03:19:48;23.50;;;13.55;;
20511;SDS011;10414;52.074;5.126;2023-05-07T03:22:15;21.95;;;14.93;;
20511;SDS011;10414;52.074;5.126;2023-05-07T03:24:44;24.55;;;15.68;;
20511;SDS011;10414;52.074;5.126;2023-05-07T03:27:10;21.00;;;16.00;;
20511;SDS011;10414;52.074;5.126;2023-05-07T03:29:37;24.73;;;16.98;;
20511;SDS011;10414;52.074;5.126;2023-05-07T03:32:04;22.05;;;14.77;;
20511;SDS011;10414;52.074;5.126;2023-05-07T03:34:31;26.35;;;17.52;;
20511;SDS011;10414;52.074;5.126;2023-05-07T03:36:58;26.02;;;17.75;;
20511;SDS011;10414;52.074;5.126;2023-05-07T03:39:26;24.85;;;16.70;;
20511;SDS011;10414;52.074;5.126;2023-05-07T03:41:54;28.92;;;18.08;;
20511;SDS011;10414;52.074;5.126;2023-05-07T03:44:21;26.45;;;17.17;;
20511;SDS011;10414;52.074;5.126;2023-05-07T03:46:48;31.05;;;19.27;;
20511;SDS011;10414;52.074;5.126;2023-05-07T03:49:14;29.58;;;19.10;;
20511;SDS011;10414;52.074;5.126;2023-05-07T03:51:41;31.35;;;19.17;;
20511;SDS011;10414;52.074;5.126;2023-05-07T03:54:08;32.20;;;19.48;;
20511;SDS011;10414;52.074;5.126;2023-05-07T03:56:35;32.58;;;18.80;;
20511;SDS011;10414;52.074;5.126;2023-05-07T03:59:03;28.85;;;18.13;;
20511;SDS011;10414;52.074;5.126;2023-05-07T04:01:30;30.90;;;18.52;;
20511;SDS011;10414;52.074;5.126;2023-05-07T04:03:56;27.98;;;17.85;;
20511;SDS011;10414;52.074;5.126;2023-05-07T04:06:23;28.98;;;16.77;;
20511;SDS011;10414;52.074;5.126;2023-05-07T04:08:50;29.85;;;18.42;;
20511;SDS011;10414;52.074;5.126;2023-05-07T04:11:17;29.73;;;17.88;;
20511;SDS011;10414;52.074;5.126;2023-05-07T04:13:45;24.58;;;15.48;;
20511;SDS011;10414;52.074;5.126;2023-05-07T04:16:13;26.73;;;16.30;;
20511;SDS011;10414;52.074;5.126;2023-05-07T04:18:40;25.95;;;16.83;;
20511;SDS011;10414;52.074;5.126;2023-05-07T04:21:13;25.02;;;16.27;;
20511;SDS011;10414;52.074;5.126;2023-05-07T04:23:40;24.52;;;16.23;;
20511;SDS011;10414;52.074;5.126;2023-05-07T04:26:07;22.77;;;15.10;;
20511;SDS011;10414;52.074;5.126;2023-05-07T04:28:34;23.10;;;14.80;;
20511;SDS011;10414;52.074;5.126;2023-05-07T04:31:01;24.15;;;15.93;;
20511;SDS011;10414;52.074;5.126;2023-05-07T04:33:29;24.20;;;16.20;;
20511;SDS011;10414;52.074;5.126;2023-05-07T04:35:56;21.83;;;14.82;;
20511;SDS011;10414;52.074;5.126;2023-05-07T04:38:27;24.98;;;15.90;;
20511;SDS011;10414;52.074;5.126;2023-05-07T04:40:54;22.02;;;15.18;;
20511;SDS011;10414;52.074;5.126;2023-05-07T04:43:21;22.70;;;15.30;;
20511;SDS011;10414;52.074;5.126;2023-05-07T04:45:49;22.73;;;15.27;;
20511;SDS011;10414;52.074;5.126;2023-05-07T04:48:16;24.33;;;16.52;;
20511;SDS011;10414;52.074;5.126;2023-05-07T04:50:45;23.33;;;14.93;;
20511;SDS011;10414;52.074;5.126;2023-05-07T04:53:14;27.27;;;17.92;;
20511;SDS011;10414;52.074;5.126;2023-05-07T04:55:40;25.63;;;17.27;;
20511;SDS011;10414;52.074;5.126;2023-05-07T04:58:08;27.02;;;17.60;;
20511;SDS011;10414;52.074;5.126;2023-05-07T05:00:35;27.10;;;16.52;;
20511;SDS011;10414;52.074;5.126;2023-05-07T05:03:02;24.48;;;16.27;;
20511;SDS011;10414;52.074;5.126;2023-05-07T05:05:30;26.58;;;16.52;;
20511;SDS011;10414;52.074;5.126;2023-05-07T05:07:58;23.92;;;16.00;;
20511;SDS011;10414;52.074;5.126;2023-05-07T05:10:25;23.83;;;15.75;;
20511;SDS011;10414;52.074;5.126;2023-05-07T05:12:52;29.27;;;17.70;;
20511;SDS011;10414;52.074;5.126;2023-05-07T05:15:18;25.40;;;16.05;;
20511;SDS011;10414;52.074;5.126;2023-05-07T05:17:45;22.67;;;16.33;;
20511;SDS011;10414;52.074;5.126;2023-05-07T05:20:12;22.23;;;15.50;;
20511;SDS011;10414;52.074;5.126;2023-05-07T05:22:39;22.92;;;14.82;;
20511;SDS011;10414;52.074;5.126;2023-05-07T05:25:08;24.05;;;16.45;;
20511;SDS011;10414;52.074;5.126;2023-05-07T05:27:35;23.38;;;15.43;;
20511;SDS011;10414;52.074;5.126;2023-05-07T05:30:02;20.90;;;14.65;;
20511;SDS011;10414;52.074;5.126;2023-05-07T05:32:30;27.38;;;17.70;;
20511;SDS011;10414;52.074;5.126;2023-05-07T05:34:57;28.48;;;18.73;;
20511;SDS011;10414;52.074;5.126;2023-05-07T05:37:24;30.60;;;19.83;;
20511;SDS011;10414;52.074;5.126;2023-05-07T05:39:51;27.75;;;18.55;;
20511;SDS011;10414;52.074;5.126;2023-05-07T05:42:21;28.85;;;18.77;;
20511;SDS011;10414;52.074;5.126;2023-05-07T05:44:48;33.38;;;20.23;;
20511;SDS011;10414;52.074;5.126;2023-05-07T05:47:14;30.17;;;20.08;;
20511;SDS011;10414;52.074;5.126;2023-05-07T05:49:41;34.28;;;21.15;;
20511;SDS011;10414;52.074;5.126;2023-05-07T05:52:09;31.88;;;20.60;;
20511;SDS011;10414;52.074;5.126;2023-05-07T05:54:36;32.25;;;21.70;;
20511;SDS011;10414;52.074;5.126;2023-05-07T05:57:03;34.63;;;22.77;;
20511;SDS011;10414;52.074;5.126;2023-05-07T05:59:32;32.95;;;20.85;;
20511;SDS011;10414;52.074;5.126;2023-05-07T06:01:59;33.05;;;20.88;;
20511;SDS011;10414;52.074;5.126;2023-05-07T06:04:26;28.75;;;19.70;;
20511;SDS011;10414;52.074;5.126;2023-05-07T06:06:52;29.75;;;19.65;;
20511;SDS011;10414;52.074;5.126;2023-05-07T06:09:19;25.85;;;17.58;;
20511;SDS011;10414;52.074;5.126;2023-05-07T06:11:46;28.80;;;18.70;;
20511;SDS011;10414;52.074;5.126;2023-05-07T06:14:13;27.95;;;18.05;;
20511;SDS011;10414;52.074;5.126;2023-05-07T06:16:41;25.77;;;17.52;;
20511;SDS011;10414;52.074;5.126;2023-05-07T06:19:08;22.27;;;16.90;;
20511;SDS011;10414;52.074;5.126;2023-05-07T06:21:35;21.13;;;16.42;;
20511;SDS011;10414;52.074;5.126;2023-05-07T06:24:02;20.23;;;14.80;;
20511;SDS011;10414;52.074;5.126;2023-05-07T06:26:29;20.75;;;14.43;;
20511;SDS011;10414;52.074;5.126;2023-05-07T06:28:55;19.90;;;14.15;;
20511;SDS011;10414;52.074;5.126;2023-05-07T06:31:22;19.95;;;14.73;;
20511;SDS011;10414;52.074;5.126;2023-05-07T06:33:50;19.77;;;14.10;;
20511;SDS011;10414;52.074;5.126;2023-05-07T06:36:17;22.58;;;14.93;;
20511;SDS011;10414;52.074;5.126;2023-05-07T06:38:44;22.05;;;14.98;;
20511;SDS011;10414;52.074;5.126;2023-05-07T06:41:11;22.30;;;14.93;;
20511;SDS011;10414;52.074;5.126;2023-05-07T06:43:38;23.23;;;15.50;;
20511;SDS011;10414;52.074;5.126;2023-05-07T06:46:05;23.20;;;14.75;;
20511;SDS011;10414;52.074;5.126;2023-05-07T06:48:31;22.80;;;14.82;;
20511;SDS011;10414;52.074;5.126;2023-05-07T06:51:00;19.98;;;14.63;;
20511;SDS011;10414;52.074;5.126;2023-05-07T06:53:27;22.38;;;16.13;;
20511;SDS011;10414;52.074;5.126;2023-05-07T06:55:55;20.02;;;14.65;;
20511;SDS011;10414;52.074;5.126;2023-05-07T06:58:22;23.02;;;13.77;;
20511;SDS011;10414;52.074;5.126;2023-05-07T07:00:49;24.42;;;14.82;;
20511;SDS011;10414;52.074;5.126;2023-05-07T07:03:16;22.60;;;14.98;;
20511;SDS011;10414;52.074;5.126;2023-05-07T07:05:43;21.90;;;14.90;;
20511;SDS011;10414;52.074;5.126;2023-05-07T07:08:11;23.60;;;15.07;;
20511;SDS011;10414;52.074;5.126;2023-05-07T07:10:38;22.40;;;15.77;;
20511;SDS011;10414;52.074;5.126;2023-05-07T07:13:05;22.30;;;14.40;;
20511;SDS011;10414;52.074;5.126;2023-05-07T07:15:31;18.52;;;12.95;;
20511;SDS011;10414;52.074;5.126;2023-05-07T07:17:58;20.35;;;13.05;;
20511;SDS011;10414;52.074;5.126;2023-05-07T07:20:25;18.35;;;11.70;;
20511;SDS011;10414;52.074;5.126;2023-05-07T07:22:52;15.73;;;9.38;;
20511;SDS011;10414;52.074;5.126;2023-05-07T07:25:20;14.40;;;9.55;;
20511;SDS011;10414;52.074;5.126;2023-05-07T07:27:47;14.40;;;9.50;;
20511;SDS011;10414;52.074;5.126;2023-05-07T07:30:14;14.32;;;9.63;;
20511;SDS011;10414;52.074;5.126;2023-05-07T07:32:40;15.85;;;10.18;;
20511;SDS011;10414;52.074;5.126;2023-05-07T07:35:08;19.00;;;11.43;;
20511;SDS011;10414;52.074;5.126;2023-05-07T07:37:35;16.23;;;12.15;;
20511;SDS011;10414;52.074;5.126;2023-05-07T07:40:01;17.27;;;11.20;;
20511;SDS011;10414;52.074;5.126;2023-05-07T07:42:30;16.90;;;11.65;;
20511;SDS011;10414;52.074;5.126;2023-05-07T07:44:57;16.92;;;11.02;;
20511;SDS011;10414;52.074;5.126;2023-05-07T07:47:24;22.65;;;12.98;;
20511;SDS011;10414;52.074;5.126;2023-05-07T07:49:51;19.60;;;13.32;;
20511;SDS011;10414;52.074;5.126;2023-05-07T07:52:17;24.30;;;14.85;;
20511;SDS011;10414;52.074;5.126;2023-05-07T07:54:44;21.20;;;13.80;;
20511;SDS011;10414;52.074;5.126;2023-05-07T07:57:11;19.73;;;13.68;;
20511;SDS011;10414;52.074;5.126;2023-05-07T07:59:39;21.92;;;14.07;;
20511;SDS011;10414;52.074;5.126;2023-05-07T08:02:08;21.33;;;14.35;;
20511;SDS011;10414;52.074;5.126;2023-05-07T08:04:35;24.88;;;15.82;;
20511;SDS011;10414;52.074;5.126;2023-05-07T08:07:02;25.55;;;17.15;;
20511;SDS011;10414;52.074;5.126;2023-05-07T08:09:29;23.65;;;15.98;;
20511;SDS011;10414;52.074;5.126;2023-05-07T08:11:56;21.45;;;14.95;;
20511;SDS011;10414;52.074;5.126;2023-05-07T08:14:24;27.05;;;16.35;;
20511;SDS011;10414;52.074;5.126;2023-05-07T08:16:54;23.40;;;16.67;;
20511;SDS011;10414;52.074;5.126;2023-05-07T08:19:21;26.15;;;16.38;;
20511;SDS011;10414;52.074;5.126;2023-05-07T08:21:48;24.70;;;15.32;;
20511;SDS011;10414;52.074;5.126;2023-05-07T08:24:15;24.55;;;15.05;;
20511;SDS011;10414;52.074;5.126;2023-05-07T08:26:43;20.70;;;13.50;;
20511;SDS011;10414;52.074;5.126;2023-05-07T08:29:10;18.27;;;13.13;;
20511;SDS011;10414;52.074;5.126;2023-05-07T08:31:37;20.45;;;12.65;;
20511;SDS011;10414;52.074;5.126;2023-05-07T08:34:06;17.83;;;11.85;;
20511;SDS011;10414;52.074;5.126;2023-05-07T08:36:33;17.33;;;11.68;;
20511;SDS011;10414;52.074;5.126;2023-05-07T08:38:59;17.15;;;11.32;;
20511;SDS011;10414;52.074;5.126;2023-05-07T08:41:27;19.15;;;10.90;;
20511;SDS011;10414;52.074;5.126;2023-05-07T08:43:54;15.52;;;10.10;;
20511;SDS011;10414;52.074;5.126;2023-05-07T08:46:24;12.70;;;9.32;;
20511;SDS011;10414;52.074;5.126;2023-05-07T08:48:51;13.32;;;8.27;;
20511;SDS011;10414;52.074;5.126;2023-05-07T08:51:20;14.93;;;9.18;;
20511;SDS011;10414;52.074;5.126;2023-05-07T08:53:48;14.10;;;8.13;;
20511;SDS011;10414;52.074;5.126;2023-05-07T08:56:16;15.52;;;9.38;;
20511;SDS011;10414;52.074;5.126;2023-05-07T08:58:43;11.07;;;8.40;;
20511;SDS011;10414;52.074;5.126;2023-05-07T09:01:12;12.90;;;8.90;;
20511;SDS011;10414;52.074;5.126;2023-05-07T09:03:40;11.75;;;8.57;;
20511;SDS011;10414;52.074;5.126;2023-05-07T09:06:07;10.43;;;7.65;;
20511;SDS011;10414;52.074;5.126;2023-05-07T09:08:36;12.68;;;7.82;;
20511;SDS011;10414;52.074;5.126;2023-05-07T09:11:03;10.77;;;7.70;;
20511;SDS011;10414;52.074;5.126;2023-05-07T09:13:30;12.48;;;8.13;;
20511;SDS011;10414;52.074;5.126;2023-05-07T09:15:57;12.23;;;7.65;;
20511;SDS011;10414;52.074;5.126;2023-05-07T09:18:24;12.63;;;7.78;;
20511;SDS011;10414;52.074;5.126;2023-05-07T09:20:51;11.60;;;8.10;;
20511;SDS011;10414;52.074;5.126;2023-05-07T09:23:18;13.10;;;8.32;;
20511;SDS011;10414;52.074;5.126;2023-05-07T09:25:46;12.25;;;8.98;;
20511;SDS011;10414;52.074;5.126;2023-05-07T09:28:13;14.52;;;8.82;;
20511;SDS011;10414;52.074;5.126;2023-05-07T09:30:40;14.52;;;8.85;;
20511;SDS011;10414;52.074;5.126;2023-05-07T09:33:06;11.25;;;8.23;;
20511;SDS011;10414;52.074;5.126;2023-05-07T09:35:33;12.82;;;8.63;;
20511;SDS011;10414;52.074;5.126;2023-05-07T09:38:00;13.45;;;7.53;;
20511;SDS011;10414;52.074;5.126;2023-05-07T09:40:29;12.60;;;7.43;;
20511;SDS011;10414;52.074;5.126;2023-05-07T09:43:07;11.20;;;8.40;;
20511;SDS011;10414;52.074;5.126;2023-05-07T09:45:36;11.70;;;7.60;;
20511;SDS011;10414;52.074;5.126;2023-05-07T09:48:04;11.88;;;7.70;;
20511;SDS011;10414;52.074;5.126;2023-05-07T09:50:32;9.88;;;5.50;;
20511;SDS011;10414;52.074;5.126;2023-05-07T09:53:03;10.07;;;4.97;;
20511;SDS011;10414;52.074;5.126;2023-05-07T09:55:30;10.02;;;5.07;;
20511;SDS011;10414;52.074;5.126;2023-05-07T09:57:59;9.70;;;5.22;;
20511;SDS011;10414;52.074;5.126;2023-05-07T10:00:27;9.07;;;5.38;;
20511;SDS011;10414;52.074;5.126;2023-05-07T10:02:56;8.40;;;4.88;;
20511;SDS011;10414;52.074;5.126;2023-05-07T10:05:24;9.43;;;5.10;;
20511;SDS011;10414;52.074;5.126;2023-05-07T10:07:52;7.55;;;4.63;;
20511;SDS011;10414;52.074;5.126;2023-05-07T10:10:20;8.30;;;4.95;;
20511;SDS011;10414;52.074;5.126;2023-05-07T10:12:48;10.45;;;5.38;;
20511;SDS011;10414;52.074;5.126;2023-05-07T10:15:18;8.93;;;5.45;;
20511;SDS011;10414;52.074;5.126;2023-05-07T10:17:45;8.52;;;4.72;;
20511;SDS011;10414;52.074;5.126;2023-05-07T10:20:14;8.90;;;4.30;;
20511;SDS011;10414;52.074;5.126;2023-05-07T10:22:41;8.82;;;4.53;;
20511;SDS011;10414;52.074;5.126;2023-05-07T10:25:14;6.40;;;3.90;;
20511;SDS011;10414;52.074;5.126;2023-05-07T10:27:44;8.15;;;3.70;;
20511;SDS011;10414;52.074;5.126;2023-05-07T10:30:15;7.10;;;3.78;;
20511;SDS011;10414;52.074;5.126;2023-05-07T10:32:53;7.28;;;4.78;;
20511;SDS011;10414;52.074;5.126;2023-05-07T10:35:23;8.75;;;5.10;;
20511;SDS011;10414;52.074;5.126;2023-05-07T10:37:53;9.52;;;4.88;;
20511;SDS011;10414;52.074;5.126;2023-05-07T10:40:20;9.07;;;4.30;;
20511;SDS011;10414;52.074;5.126;2023-05-07T10:42:54;8.25;;;3.97;;
20511;SDS011;10414;52.074;5.126;2023-05-07T10:45:23;7.60;;;4.53;;
20511;SDS011;10414;52.074;5.126;2023-05-07T10:48:07;6.35;;;3.65;;
20511;SDS011;10414;52.074;5.126;2023-05-07T10:50:35;5.63;;;3.55;;
20511;SDS011;10414;52.074;5.126;2023-05-07T10:53:20;6.22;;;3.70;;
20511;SDS011;10414;52.074;5.126;2023-05-07T10:58:52;6.22;;;4.03;;
20511;SDS011;10414;52.074;5.126;2023-05-07T11:09:58;7.45;;;4.00;;
20511;SDS011;10414;52.074;5.126;2023-05-07T11:18:05;6.20;;;4.15;;
20511;SDS011;10414;52.074;5.126;2023-05-07T11:20:49;8.38;;;5.47;;
20511;SDS011;10414;52.074;5.126;2023-05-07T11:26:26;8.45;;;5.40;;
20511;SDS011;10414;52.074;5.126;2023-05-07T11:28:54;8.10;;;4.85;;
20511;SDS011;10414;52.074;5.126;2023-05-07T11:31:22;8.05;;;4.80;;
20511;SDS011;10414;52.074;5.126;2023-05-07T11:33:53;8.82;;;5.30;;
20511;SDS011;10414;52.074;5.126;2023-05-07T11:36:22;7.10;;;4.72;;
20511;SDS011;10414;52.074;5.126;2023-05-07T11:38:50;8.88;;;6.30;;
20511;SDS011;10414;52.074;5.126;2023-05-07T11:41:17;7.28;;;4.10;;
20511;SDS011;10414;52.074;5.126;2023-05-07T11:43:55;7.60;;;4.07;;
20511;SDS011;10414;52.074;5.126;2023-05-07T11:46:23;6.97;;;4.15;;
20511;SDS011;10414;52.074;5.126;2023-05-07T11:48:49;10.27;;;5.85;;
20511;SDS011;10414;52.074;5.126;2023-05-07T11:51:22;10.23;;;6.40;;
20511;SDS011;10414;52.074;5.126;2023-05-07T11:53:51;8.43;;;6.10;;
20511;SDS011;10414;52.074;5.126;2023-05-07T11:56:18;9.38;;;6.05;;
20511;SDS011;10414;52.074;5.126;2023-05-07T11:58:46;10.77;;;6.10;;
20511;SDS011;10414;52.074;5.126;2023-05-07T12:01:13;8.48;;;5.13;;
20511;SDS011;10414;52.074;5.126;2023-05-07T12:03:42;10.40;;;6.28;;
20511;SDS011;10414;52.074;5.126;2023-05-07T12:06:11;9.93;;;7.63;;
20511;SDS011;10414;52.074;5.126;2023-05-07T12:08:40;9.70;;;7.57;;
20511;SDS011;10414;52.074;5.126;2023-05-07T12:11:08;9.63;;;6.65;;
20511;SDS011;10414;52.074;5.126;2023-05-07T12:13:36;10.95;;;6.82;;
20511;SDS011;10414;52.074;5.126;2023-05-07T12:16:05;9.35;;;5.47;;
20511;SDS011;10414;52.074;5.126;2023-05-07T12:18:32;10.32;;;6.63;;
20511;SDS011;10414;52.074;5.126;2023-05-07T12:21:01;9.82;;;6.72;;
20511;SDS011;10414;52.074;5.126;2023-05-07T12:23:30;8.88;;;6.05;;
20511;SDS011;10414;52.074;5.126;2023-05-07T12:25:58;8.70;;;6.18;;
20511;SDS011;10414;52.074;5.126;2023-05-07T12:28:26;8.05;;;5.25;;
20511;SDS011;10414;52.074;5.126;2023-05-07T12:30:52;8.82;;;5.30;;
20511;SDS011;10414;52.074;5.126;2023-05-07T12:33:24;9.20;;;6.05;;
20511;SDS011;10414;52.074;5.126;2023-05-07T12:35:53;10.75;;;5.93;;
20511;SDS011;10414;52.074;5.126;2023-05-07T12:38:21;9.80;;;5.38;;
20511;SDS011;10414;52.074;5.126;2023-05-07T12:40:48;10.52;;;5.13;;
20511;SDS011;10414;52.074;5.126;2023-05-07T12:43:18;8.18;;;5.32;;
20511;SDS011;10414;52.074;5.126;2023-05-07T12:45:46;8.97;;;5.07;;
20511;SDS011;10414;52.074;5.126;2023-05-07T12:48:15;6.95;;;5.15;;
20511;SDS011;10414;52.074;5.126;2023-05-07T12:50:42;9.82;;;5.28;;
20511;SDS011;10414;52.074;5.126;2023-05-07T12:53:10;8.98;;;5.30;;
20511;SDS011;10414;52.074;5.126;2023-05-07T12:55:40;7.72;;;5.50;;
20511;SDS011;10414;52.074;5.126;2023-05-07T12:58:08;9.25;;;5.93;;
20511;SDS011;10414;52.074;5.126;2023-05-07T13:00:43;10.10;;;7.07;;
20511;SDS011;10414;52.074;5.126;2023-05-07T13:03:11;12.47;;;6.90;;
20511;SDS011;10414;52.074;5.126;2023-05-07T13:05:38;11.48;;;6.53;;
20511;SDS011;10414;52.074;5.126;2023-05-07T13:08:05;10.90;;;7.50;;
20511;SDS011;10414;52.074;5.126;2023-05-07T13:10:34;11.80;;;6.63;;
20511;SDS011;10414;52.074;5.126;2023-05-07T13:13:01;10.07;;;6.68;;
20511;SDS011;10414;52.074;5.126;2023-05-07T13:15:28;10.23;;;6.97;;
20511;SDS011;10414;52.074;5.126;2023-05-07T13:17:56;10.13;;;5.80;;
20511;SDS011;10414;52.074;5.126;2023-05-07T13:20:23;11.18;;;6.30;;
20511;SDS011;10414;52.074;5.126;2023-05-07T13:22:50;10.15;;;6.53;;
20511;SDS011;10414;52.074;5.126;2023-05-07T13:25:17;9.07;;;5.55;;
20511;SDS011;10414;52.074;5.126;2023-05-07T13:27:44;9.60;;;5.05;;
20511;SDS011;10414;52.074;5.126;2023-05-07T13:30:11;8.52;;;3.78;;
20511;SDS011;10414;52.074;5.126;2023-05-07T13:32:38;8.35;;;3.10;;
20511;SDS011;10414;52.074;5.126;2023-05-07T13:35:07;6.95;;;3.03;;
20511;SDS011;10414;52.074;5.126;2023-05-07T13:37:34;7.55;;;3.20;;
20511;SDS011;10414;52.074;5.126;2023-05-07T13:40:01;7.30;;;2.97;;
20511;SDS011;10414;52.074;5.126;2023-05-07T13:42:28;9.15;;;3.65;;
20511;SDS011;10414;52.074;5.126;2023-05-07T13:44:55;7.43;;;3.42;;
20511;SDS011;10414;52.074;5.126;2023-05-07T13:47:22;7.93;;;3.20;;
20511;SDS011;10414;52.074;5.126;2023-05-07T13:49:49;8.98;;;3.33;;
20511;SDS011;10414;52.074;5.126;2023-05-07T13:52:18;7.20;;;3.67;;
20511;SDS011;10414;52.074;5.126;2023-05-07T13:54:46;7.60;;;3.28;;
20511;SDS011;10414;52.074;5.126;2023-05-07T13:57:13;8.60;;;3.40;;
20511;SDS011;10414;52.074;5.126;2023-05-07T13:59:40;7.10;;;3.10;;
20511;SDS011;10414;52.074;5.126;2023-05-07T14:02:07;5.55;;;2.67;;
20511;SDS011;10414;52.074;5.126;2023-05-07T14:04:34;6.35;;;2.90;;
20511;SDS011;10414;52.074;5.126;2023-05-07T14:07:01;7.63;;;2.30;;
20511;SDS011;10414;52.074;5.126;2023-05-07T14:09:29;7.57;;;2.60;;
20511;SDS011;10414;52.074;5.126;2023-05-07T14:11:56;6.97;;;3.05;;
20511;SDS011;10414;52.074;5.126;2023-05-07T14:14:23;7.72;;;2.85;;
20511;SDS011;10414;52.074;5.126;2023-05-07T14:16:49;7.07;;;2.65;;
20511;SDS011;10414;52.074;5.126;2023-05-07T14:19:16;5.72;;;2.60;;
20511;SDS011;10414;52.074;5.126;2023-05-07T14:21:43;6.40;;;2.47;;
20511;SDS011;10414;52.074;5.126;2023-05-07T14:24:10;7.35;;;2.35;;
20511;SDS011;10414;52.074;5.126;2023-05-07T14:26:38;6.07;;;2.40;;
20511;SDS011;10414;52.074;5.126;2023-05-07T14:29:05;6.60;;;3.60;;
20511;SDS011;10414;52.074;5.126;2023-05-07T14:31:32;9.18;;;4.13;;
20511;SDS011;10414;52.074;5.126;2023-05-07T14:33:59;7.93;;;4.30;;
20511;SDS011;10414;52.074;5.126;2023-05-07T14:36:26;7.93;;;4.47;;
20511;SDS011;10414;52.074;5.126;2023-05-07T14:38:53;9.73;;;5.70;;
20511;SDS011;10414;52.074;5.126;2023-05-07T14:41:20;10.02;;;6.68;;
20511;SDS011;10414;52.074;5.126;2023-05-07T14:43:49;10.25;;;6.93;;
20511;SDS011;10414;52.074;5.126;2023-05-07T14:46:16;10.73;;;6.63;;
20511;SDS011;10414;52.074;5.126;2023-05-07T14:48:43;10.95;;;6.82;;
20511;SDS011;10414;52.074;5.126;2023-05-07T14:51:11;11.05;;;6.28;;
20511;SDS011;10414;52.074;5.126;2023-05-07T14:53:38;10.73;;;6.97;;